Time;durP1;ratioP1;P1;durP2;ratioP2;P2;SDS_P1;SDS_P2;PMS_P1;PMS_P2;Temp;Humidity;BMP_temperature;BMP_pressure;BME280_temperature;BME280_humidity;BME280_pressure;Samples;Min_cycle;Max_cycle;Signal;HPM_P1;HPM_P2
2021/11/09 00:01:15;;;;;;;17.73;5.70;;;;;;;5.32;98.84;102616.47;5044911;28;20263;-85
2021/11/09 00:03:47;;;;;;;18.65;5.68;;;;;;;5.35;99.05;102619.97;5079163;28;20032;-85
2021/11/09 00:06:21;;;;;;;25.92;6.07;;;;;;;5.39;99.00;102615.66;5061677;28;20043;-85
2021/11/09 00:09:06;;;;;;;22.75;5.70;;;;;;;5.40;99.07;102620.00;5046107;28;20465;-85
2021/11/09 00:11:32;;;;;;;24.02;6.38;;;;;;;5.38;99.10;102609.59;5078593;28;20033;-85
2021/11/09 00:13:57;;;;;;;21.85;5.65;;;;;;;5.36;99.09;102608.69;5045004;28;20054;-85
2021/11/09 00:16:23;;;;;;;20.20;5.68;;;;;;;5.35;99.04;102617.38;5073113;28;20381;-85
2021/11/09 00:18:49;;;;;;;21.48;6.78;;;;;;;5.35;98.83;102606.97;5053338;28;20046;-85
2021/11/09 00:21:16;;;;;;;23.85;5.60;;;;;;;5.32;98.74;102612.13;5031903;28;20016;-85
2021/11/09 00:23:41;;;;;;;14.88;5.65;;;;;;;5.30;98.68;102613.84;5036435;28;20020;-85
2021/11/09 00:26:07;;;;;;;23.20;6.22;;;;;;;5.27;98.76;102611.22;5081025;28;20025;-85
2021/11/09 00:28:33;;;;;;;15.20;5.75;;;;;;;5.24;98.70;102608.59;5055296;28;20028;-85
2021/11/09 00:30:58;;;;;;;18.58;6.13;;;;;;;5.24;98.68;102613.78;5080975;28;20044;-84
2021/11/09 00:33:24;;;;;;;21.17;7.10;;;;;;;5.23;98.68;102613.78;5051020;28;20036;-85
2021/11/09 00:35:49;;;;;;;15.13;5.45;;;;;;;5.23;98.58;102608.59;5047556;28;20032;-85
2021/11/09 00:38:15;;;;;;;25.63;7.15;;;;;;;5.27;98.58;102613.81;5044530;28;20213;-85
2021/11/09 00:40:42;;;;;;;14.52;6.25;;;;;;;5.27;98.66;102613.81;5078094;28;20073;-85
2021/11/09 00:43:08;;;;;;;21.85;7.18;;;;;;;5.27;98.62;102613.81;5065259;28;20331;-85
2021/11/09 00:45:34;;;;;;;17.20;6.80;;;;;;;5.26;98.65;102609.47;5048085;28;20030;-85
2021/11/09 00:47:59;;;;;;;19.50;6.93;;;;;;;5.24;98.77;102606.00;5081550;28;20366;-85
2021/11/09 00:50:25;;;;;;;18.67;7.05;;;;;;;5.26;98.64;102612.09;5063944;28;20081;-84
2021/11/09 00:52:50;;;;;;;20.90;7.47;;;;;;;5.23;98.56;102613.78;5064455;28;20127;-85
2021/11/09 00:55:16;;;;;;;19.17;7.18;;;;;;;5.23;98.57;102611.19;5060988;28;20047;-85
2021/11/09 00:57:42;;;;;;;19.65;7.22;;;;;;;5.21;98.60;102605.09;5060954;28;20055;-85
2021/11/09 01:00:09;;;;;;;22.63;7.47;;;;;;;5.15;98.68;102611.13;5061193;28;20031;-85
2021/11/09 01:02:35;;;;;;;22.42;7.45;;;;;;;5.14;98.50;102611.94;5060803;28;20379;-85
2021/11/09 01:05:01;;;;;;;23.42;8.38;;;;;;;5.16;98.36;102612.84;5079234;28;20044;-84
2021/11/09 01:07:26;;;;;;;24.83;7.05;;;;;;;5.15;98.57;102611.13;5043835;28;20283;-85
2021/11/09 01:09:52;;;;;;;21.23;7.88;;;;;;;5.12;98.43;102614.53;5060717;28;20056;-85
2021/11/09 01:12:17;;;;;;;17.63;7.28;;;;;;;5.11;98.36;102611.91;5044191;28;20185;-85
2021/11/09 01:14:43;;;;;;;16.25;6.90;;;;;;;5.12;98.57;102616.25;5078697;28;20047;-85
2021/11/09 01:17:08;;;;;;;17.20;7.28;;;;;;;5.11;98.42;102617.09;5078769;28;20041;-85
2021/11/09 01:19:33;;;;;;;26.70;7.43;;;;;;;5.10;98.41;102617.97;5032820;28;20032;-85
2021/11/09 01:22:00;;;;;;;23.83;7.35;;;;;;;5.07;98.28;102613.59;5047752;28;20355;-85
2021/11/09 01:24:26;;;;;;;27.70;7.53;;;;;;;5.06;98.35;102619.66;5060144;28;20066;-85
2021/11/09 01:26:51;;;;;;;21.42;7.70;;;;;;;5.01;98.37;102613.56;5044370;28;20029;-85
2021/11/09 01:29:16;;;;;;;16.45;6.90;;;;;;;4.98;98.35;102606.63;5044071;28;20029;-85
2021/11/09 01:31:42;;;;;;;14.98;7.10;;;;;;;4.95;98.19;102601.38;5061124;28;20067;-85
2021/11/09 01:34:08;;;;;;;19.42;8.13;;;;;;;4.93;98.13;102607.38;5060921;28;20107;-85
2021/11/09 01:36:33;;;;;;;21.55;7.57;;;;;;;4.93;98.12;102613.47;5060954;28;20032;-84
2021/11/09 01:38:59;;;;;;;24.88;8.10;;;;;;;4.92;98.15;102608.25;5043947;28;20036;-85
2021/11/09 01:41:25;;;;;;;24.10;7.57;;;;;;;4.90;98.25;102609.97;5043731;28;20033;-85
2021/11/09 01:43:51;;;;;;;21.25;7.65;;;;;;;4.91;98.25;102607.41;5044402;28;20085;-85
2021/11/09 01:46:17;;;;;;;26.58;8.20;;;;;;;4.88;98.41;102602.16;5044312;28;20058;-85
2021/11/09 01:48:42;;;;;;;22.10;7.80;;;;;;;4.87;98.32;102602.13;5043974;28;20040;-85
2021/11/09 01:51:10;;;;;;;25.92;8.07;;;;;;;4.87;98.34;102600.41;5078424;28;20044;-85
2021/11/09 01:53:36;;;;;;;17.73;7.80;;;;;;;4.88;98.28;102596.97;5044022;28;20339;-85
2021/11/09 01:56:03;;;;;;;27.80;8.02;;;;;;;4.87;98.47;102596.94;5027508;28;20055;-85
2021/11/09 01:58:31;;;;;;;27.20;8.98;;;;;;;4.85;98.44;102599.53;5060664;28;20035;-84
2021/11/09 02:04:18;;;;;;;29.92;9.05;;;;;;;4.82;98.53;102607.28;5070755;28;20027;-87
2021/11/09 02:06:43;;;;;;;26.08;7.85;;;;;;;4.78;98.45;102601.19;5076602;28;20103;-87
2021/11/09 02:09:11;;;;;;;19.75;8.35;;;;;;;4.77;98.56;102590.78;5094908;28;20638;-87
2021/11/09 02:11:37;;;;;;;16.05;8.43;;;;;;;4.74;98.22;102591.59;5063439;28;20063;-87
2021/11/09 02:14:02;;;;;;;21.33;9.10;;;;;;;4.73;98.34;102586.38;5063663;28;20104;-87
2021/11/09 02:16:28;;;;;;;32.90;9.52;;;;;;;4.71;98.44;102588.09;5050409;28;20024;-87
2021/11/09 02:18:53;;;;;;;24.02;9.05;;;;;;;4.70;98.36;102584.66;5066991;28;20057;-87
2021/11/09 02:21:19;;;;;;;23.80;10.07;;;;;;;4.70;98.30;102589.84;5081914;28;20044;-87
2021/11/09 02:23:44;;;;;;;25.33;9.32;;;;;;;4.69;98.39;102579.44;5030385;28;20119;-87
2021/11/09 02:26:11;;;;;;;32.08;9.40;;;;;;;4.69;98.46;102585.47;5063606;28;20036;-87
2021/11/09 02:28:36;;;;;;;19.20;9.65;;;;;;;4.72;98.56;102584.66;5046753;28;20031;-87
2021/11/09 02:31:02;;;;;;;34.72;11.80;;;;;;;4.74;98.52;102591.59;5063266;28;20111;-87
2021/11/09 02:33:27;;;;;;;29.83;11.05;;;;;;;4.75;98.78;102590.75;5081706;28;20209;-87
2021/11/09 02:35:53;;;;;;;37.30;11.65;;;;;;;4.77;98.64;102596.84;5030446;28;20037;-87
2021/11/09 02:38:19;;;;;;;31.23;11.18;;;;;;;4.78;98.84;102595.09;5063227;28;20089;-87
2021/11/09 02:40:44;;;;;;;29.85;12.13;;;;;;;4.78;98.95;102585.63;5046842;28;20065;-87
2021/11/09 02:43:13;;;;;;;34.75;12.10;;;;;;;4.78;99.00;102592.50;5063233;28;20056;-87
2021/11/09 02:45:53;;;;;;;29.30;11.38;;;;;;;4.79;99.00;102589.94;5046737;28;20066;-87
2021/11/09 02:48:31;;;;;;;31.90;11.88;;;;;;;4.81;99.01;102587.38;5048092;28;20024;-87
2021/11/09 02:51:02;;;;;;;38.17;12.95;;;;;;;4.81;99.02;102585.63;5080835;28;20041;-87
2021/11/09 02:53:37;;;;;;;36.22;11.90;;;;;;;4.82;99.07;102586.53;5063866;28;20036;-87
2021/11/09 03:04:11;;;;;;;31.67;12.80;;;;;;;4.86;99.15;102582.22;5062920;28;20052;-87
2021/11/09 03:06:58;;;;;;;37.58;12.23;;;;;;;4.90;99.22;102581.41;5085535;28;20031;-86
2021/11/09 03:12:04;;;;;;;35.78;14.07;;;;;;;4.98;99.42;102584.94;5081632;28;20359;-86
2021/11/09 03:14:29;;;;;;;34.17;12.30;;;;;;;4.99;99.43;102589.28;5030708;28;20055;-86
2021/11/09 03:16:58;;;;;;;28.25;13.07;;;;;;;5.00;99.31;102583.22;5063585;28;20016;-86
2021/11/09 03:19:39;;;;;;;30.05;11.55;;;;;;;5.01;99.41;102587.59;5064169;28;20050;-86
2021/11/09 03:44:20;;;;;;;52.28;17.67;;;;;;;4.93;98.90;102609.97;5065938;28;20039;-87
2021/11/09 03:46:53;;;;;;;66.40;21.15;;;;;;;4.92;99.01;102610.84;5051692;28;20044;-86
2021/11/09 03:49:20;;;;;;;75.22;22.38;;;;;;;4.91;98.89;102611.69;5046884;28;20198;-86
2021/11/09 03:51:46;;;;;;;89.57;25.75;;;;;;;4.93;98.95;102615.19;5050898;28;20054;-86
2021/11/09 03:54:14;;;;;;;87.68;28.25;;;;;;;4.94;98.88;102616.94;5082028;28;20024;-86
2021/11/09 03:56:51;;;;;;;95.93;31.52;;;;;;;4.97;98.78;102617.84;5067281;28;20042;-86
2021/11/09 03:59:26;;;;;;;95.15;28.35;;;;;;;5.04;99.01;102608.41;5065250;28;20270;-86
2021/11/09 04:04:41;;;;;;;87.00;24.88;;;;;;;5.16;99.20;102592.91;5063322;28;20036;-86
2021/11/09 04:28:06;;;;;;;42.88;13.15;;;;;;;5.52;98.78;102603.66;5062609;28;20074;-86
2021/11/09 05:02:41;;;;;;;43.50;13.63;;;;;;;5.72;97.56;102611.63;5080147;28;20055;-86
2021/11/09 05:10:33;;;;;;;38.47;12.70;;;;;;;5.83;97.46;102622.09;5064299;28;20057;-86
2021/11/09 05:12:59;;;;;;;33.47;12.60;;;;;;;5.85;97.43;102623.84;5061813;28;20025;-86
2021/11/09 05:15:24;;;;;;;35.22;13.05;;;;;;;5.89;97.49;102620.41;5045590;28;20200;-86
2021/11/09 05:17:50;;;;;;;49.22;13.15;;;;;;;5.93;97.54;102629.09;5045868;28;20035;-85
2021/11/09 05:20:15;;;;;;;50.85;14.63;;;;;;;5.96;97.51;102635.22;5062600;28;20028;-86
2021/11/09 05:22:41;;;;;;;52.85;15.40;;;;;;;6.00;97.33;102628.31;5062439;28;20078;-87
2021/11/09 05:25:06;;;;;;;58.00;17.42;;;;;;;6.04;97.42;102629.19;5044101;28;20033;-87
2021/11/09 05:27:32;;;;;;;58.20;17.23;;;;;;;6.07;97.23;102627.50;5079388;28;20025;-86
2021/11/09 05:29:57;;;;;;;58.38;17.92;;;;;;;6.11;97.08;102630.97;5062088;28;20029;-86
2021/11/09 05:32:23;;;;;;;72.63;20.40;;;;;;;6.13;97.14;102632.75;5061892;28;20324;-86
2021/11/09 05:34:48;;;;;;;66.45;21.17;;;;;;;6.19;97.03;102626.72;5080406;28;20037;-86
2021/11/09 05:37:18;;;;;;;75.07;21.08;;;;;;;6.23;96.95;102628.47;5061730;28;20031;-86
2021/11/09 05:39:46;;;;;;;74.63;20.17;;;;;;;6.25;96.93;102634.53;5062645;28;20025;-86
2021/11/09 05:42:13;;;;;;;64.82;19.27;;;;;;;6.28;96.77;102634.56;5079704;28;20032;-86
2021/11/09 05:44:39;;;;;;;68.88;20.83;;;;;;;6.31;96.77;102631.09;5062238;28;20070;-86
2021/11/09 05:47:04;;;;;;;69.82;20.83;;;;;;;6.33;96.66;102632.88;5045429;28;20045;-86
2021/11/09 05:49:30;;;;;;;62.63;18.75;;;;;;;6.37;96.60;102635.47;5045677;28;20032;-86
2021/11/09 05:51:55;;;;;;;55.05;18.45;;;;;;;6.37;96.22;102640.69;5048625;28;20420;-86
2021/11/09 05:54:21;;;;;;;74.10;19.65;;;;;;;6.38;96.23;102643.28;5054879;28;20027;-87
2021/11/09 05:56:46;;;;;;;64.55;17.90;;;;;;;6.41;96.05;102639.84;5069198;28;20032;-86
2021/11/09 05:59:12;;;;;;;72.80;19.60;;;;;;;6.42;95.94;102644.19;5090282;28;20032;-86
2021/11/09 06:01:37;;;;;;;55.22;16.60;;;;;;;6.43;96.25;102640.72;5065481;28;20028;-86
2021/11/09 06:04:03;;;;;;;59.50;17.88;;;;;;;6.44;95.92;102637.25;5083219;28;20039;-86
2021/11/09 06:06:28;;;;;;;48.00;16.10;;;;;;;6.45;95.83;102644.22;5065700;28;20107;-86
2021/11/09 06:08:54;;;;;;;56.30;17.08;;;;;;;6.46;95.73;102645.97;5048951;28;20028;-86
2021/11/09 06:11:19;;;;;;;60.08;15.75;;;;;;;6.49;95.78;102645.97;5048630;28;20024;-86
2021/11/09 06:13:45;;;;;;;48.60;15.50;;;;;;;6.50;95.73;102643.38;5049289;28;20363;-86
2021/11/09 06:16:10;;;;;;;55.13;15.93;;;;;;;6.48;95.46;102645.09;5049259;28;20024;-87
2021/11/09 06:18:36;;;;;;;47.45;14.88;;;;;;;6.48;95.15;102650.31;5065061;28;20062;-86
2021/11/09 06:21:01;;;;;;;61.22;15.70;;;;;;;6.50;95.03;102653.78;5064835;28;20080;-86
2021/11/09 06:23:26;;;;;;;55.63;15.75;;;;;;;6.51;94.85;102655.53;5048712;28;20017;-86
2021/11/09 06:25:52;;;;;;;58.13;16.80;;;;;;;6.54;95.37;102657.28;5047976;28;20040;-86
2021/11/09 06:28:19;;;;;;;61.85;18.08;;;;;;;6.53;95.22;102656.41;5048484;28;20068;-86
2021/11/09 06:30:46;;;;;;;56.33;18.48;;;;;;;6.53;95.17;102653.81;5082956;28;20035;-86
2021/11/09 06:33:12;;;;;;;62.30;19.98;;;;;;;6.55;95.11;102661.63;5048749;28;20036;-86
2021/11/09 06:35:37;;;;;;;64.32;19.77;;;;;;;6.54;95.02;102658.13;5064492;28;20250;-86
2021/11/09 06:38:03;;;;;;;69.78;21.80;;;;;;;6.56;95.03;102654.69;5082324;28;20032;-86
2021/11/09 06:40:28;;;;;;;66.10;19.25;;;;;;;6.56;94.90;102665.94;5064321;28;20081;-86
2021/11/09 06:42:54;;;;;;;62.03;17.92;;;;;;;6.56;94.88;102670.28;5069703;28;20023;-87
2021/11/09 06:45:19;;;;;;;59.50;18.02;;;;;;;6.56;94.78;102668.56;5084215;28;20031;-86
2021/11/09 06:47:45;;;;;;;63.08;19.15;;;;;;;6.58;94.87;102668.56;5067710;28;20042;-86
2021/11/09 06:50:11;;;;;;;52.20;16.92;;;;;;;6.56;94.88;102676.38;5102253;28;20042;-87
2021/11/09 06:52:36;;;;;;;64.90;17.38;;;;;;;6.55;94.57;102682.44;5049502;28;20039;-86
2021/11/09 06:55:04;;;;;;;56.22;16.98;;;;;;;6.58;94.51;102676.38;5066898;28;20026;-86
2021/11/09 06:57:29;;;;;;;47.05;15.65;;;;;;;6.60;94.60;102678.13;5102551;28;20032;-87
2021/11/09 06:59:54;;;;;;;56.15;18.25;;;;;;;6.62;94.86;102681.63;5084158;28;20220;-86
2021/11/09 07:02:20;;;;;;;48.17;16.63;;;;;;;6.64;94.79;102679.91;5050410;28;20226;-86
2021/11/09 07:04:45;;;;;;;52.60;16.92;;;;;;;6.66;94.84;102685.97;5078711;28;20305;-86
2021/11/09 07:07:11;;;;;;;46.17;17.65;;;;;;;6.68;95.22;102686.00;5078972;28;20032;-86
2021/11/09 07:09:36;;;;;;;50.33;16.23;;;;;;;6.69;95.13;102693.81;5062001;28;20335;-86
2021/11/09 07:12:02;;;;;;;52.03;17.52;;;;;;;6.72;95.16;102698.16;5080432;28;20078;-86
2021/11/09 07:14:28;;;;;;;57.92;18.45;;;;;;;6.71;95.25;102694.69;5057398;28;20077;-87
2021/11/09 07:16:53;;;;;;;48.03;18.83;;;;;;;6.73;95.32;102695.56;5079701;28;20251;-86
2021/11/09 07:19:19;;;;;;;54.63;18.38;;;;;;;6.76;95.43;102696.44;5061745;28;20089;-86
2021/11/09 07:21:46;;;;;;;47.58;17.60;;;;;;;6.78;95.32;102708.59;5062493;28;20033;-87
2021/11/09 07:24:12;;;;;;;48.80;18.60;;;;;;;6.80;95.34;102711.22;5061586;28;20028;-87
2021/11/09 07:26:37;;;;;;;52.60;17.95;;;;;;;6.79;95.19;102712.09;5062204;28;20059;-86
2021/11/09 07:29:03;;;;;;;52.05;16.50;;;;;;;6.80;95.13;102712.06;5080502;28;20171;-86
2021/11/09 07:31:29;;;;;;;52.55;18.15;;;;;;;6.85;95.52;102714.72;5048320;28;20040;-86
2021/11/09 07:33:55;;;;;;;45.20;16.98;;;;;;;6.87;95.36;102719.03;5069985;28;20062;-86
2021/11/09 07:36:21;;;;;;;59.20;19.05;;;;;;;6.90;95.69;102719.06;5062581;28;20040;-87
2021/11/09 07:38:46;;;;;;;63.25;17.77;;;;;;;6.92;95.68;102717.34;5065312;28;20273;-86
2021/11/09 07:41:12;;;;;;;61.03;18.67;;;;;;;6.96;95.90;102723.44;5096145;28;20035;-87
2021/11/09 07:43:37;;;;;;;64.55;18.95;;;;;;;6.99;95.99;102725.19;5079151;28;20081;-87
2021/11/09 07:46:05;;;;;;;45.08;17.20;;;;;;;7.00;95.79;102733.00;5056620;28;20028;-87
2021/11/09 07:48:30;;;;;;;56.17;18.98;;;;;;;7.01;95.90;102734.75;5072709;28;20028;-87
2021/11/09 07:50:56;;;;;;;50.95;16.10;;;;;;;7.03;95.75;102739.97;5070363;28;20348;-87
2021/11/09 07:53:23;;;;;;;51.40;17.33;;;;;;;7.05;95.71;102733.91;5071689;28;20316;-87
2021/11/09 07:55:55;;;;;;;47.65;16.77;;;;;;;7.06;95.87;102735.66;5049719;28;20032;-87
2021/11/09 07:58:31;;;;;;;36.85;15.93;;;;;;;7.07;95.78;102736.50;5078960;28;20085;-88
2021/11/09 08:01:07;;;;;;;54.70;16.80;;;;;;;7.09;95.66;102735.66;5069683;28;20077;-88
2021/11/09 08:03:40;;;;;;;50.17;16.77;;;;;;;7.13;95.61;102741.78;5052545;28;20320;-88
2021/11/09 08:08:52;;;;;;;52.15;17.60;;;;;;;7.16;95.67;102741.75;5049712;28;20297;-88
2021/11/09 08:11:17;;;;;;;52.03;17.38;;;;;;;7.19;95.59;102747.00;5043845;28;20230;-88
2021/11/09 08:13:43;;;;;;;61.42;17.27;;;;;;;7.22;95.73;102740.91;5058637;28;20036;-88
2021/11/09 08:16:08;;;;;;;42.70;16.63;;;;;;;7.27;95.69;102741.81;5065501;28;20041;-88
2021/11/09 08:18:34;;;;;;;59.47;18.38;;;;;;;7.30;95.77;102747.03;5058734;28;20024;-88
2021/11/09 08:20:59;;;;;;;53.63;17.20;;;;;;;7.33;95.58;102747.06;5038615;28;20111;-88
2021/11/09 08:23:25;;;;;;;55.67;17.20;;;;;;;7.35;95.56;102747.03;5045893;28;20407;-88
2021/11/09 08:25:50;;;;;;;50.58;16.92;;;;;;;7.36;95.41;102741.81;5044918;28;20370;-88
2021/11/09 08:28:15;;;;;;;66.18;17.95;;;;;;;7.39;95.46;102744.47;5080620;28;20045;-88
2021/11/09 08:30:41;;;;;;;45.80;15.18;;;;;;;7.43;95.47;102737.50;5071265;28;20231;-88
2021/11/09 08:33:07;;;;;;;53.97;16.38;;;;;;;7.48;95.51;102738.41;5065096;28;20036;-88
2021/11/09 08:35:32;;;;;;;52.78;16.40;;;;;;;7.53;95.56;102749.72;5088326;28;20032;-88
2021/11/09 08:37:58;;;;;;;51.30;16.73;;;;;;;7.53;95.09;102741.91;5090395;28;20050;-88
2021/11/09 08:40:23;;;;;;;49.13;16.90;;;;;;;7.58;95.02;102740.16;5067781;28;20209;-88
2021/11/09 08:42:51;;;;;;;51.72;15.75;;;;;;;7.58;94.87;102737.53;5094766;28;20158;-88
2021/11/09 08:45:26;;;;;;;54.97;16.48;;;;;;;7.63;94.82;102737.56;5052019;28;20035;-87
2021/11/09 08:47:59;;;;;;;47.47;15.73;;;;;;;7.66;94.80;102741.03;5052955;28;20069;-88
2021/11/09 08:50:25;;;;;;;44.70;16.95;;;;;;;7.71;94.75;102741.03;5039238;28;20250;-88
2021/11/09 08:52:53;;;;;;;55.97;17.23;;;;;;;7.76;94.79;102746.28;5096592;28;20355;-85
2021/11/09 08:55:40;;;;;;;59.92;19.25;;;;;;;7.77;94.78;102738.47;5037402;28;20024;-86
2021/11/09 09:06:22;;;;;;;55.53;18.10;;;;;;;7.97;94.15;102737.63;4990835;28;20273;-86
2021/11/09 09:08:48;;;;;;;52.28;17.30;;;;;;;8.00;94.27;102732.38;4993901;28;20070;-87
2021/11/09 09:11:16;;;;;;;58.15;17.30;;;;;;;8.03;93.81;102737.59;5049756;28;20123;-86
2021/11/09 09:13:42;;;;;;;45.58;15.93;;;;;;;8.06;93.98;102737.63;5065867;28;20099;-86
2021/11/09 09:16:07;;;;;;;46.03;15.57;;;;;;;8.09;94.22;102745.44;5096962;28;20117;-86
2021/11/09 09:18:33;;;;;;;52.97;16.88;;;;;;;8.12;94.69;102741.97;5077843;28;20361;-86
2021/11/09 09:21:08;;;;;;;64.95;16.63;;;;;;;8.11;94.19;102750.66;5039579;28;20044;-86
2021/11/09 09:23:41;;;;;;;42.83;14.57;;;;;;;8.16;94.27;102748.91;5046594;28;20047;-87
2021/11/09 09:29:06;;;;;;;45.17;14.52;;;;;;;8.20;94.10;102748.03;5100681;28;20112;-86
2021/11/09 09:55:50;;;;;;;46.42;13.68;;;;;;;8.35;92.27;102762.81;5069627;28;20045;-86
2021/11/09 09:58:16;;;;;;;38.30;13.38;;;;;;;8.36;92.43;102754.13;5064551;28;20032;-86
2021/11/09 10:00:42;;;;;;;45.47;14.02;;;;;;;8.36;92.47;102759.34;5070865;28;20040;-86
2021/11/09 10:03:07;;;;;;;45.55;13.63;;;;;;;8.38;92.78;102750.63;5036668;28;20456;-86
2021/11/09 10:05:35;;;;;;;57.33;14.65;;;;;;;8.37;92.47;102759.34;5053803;28;20028;-87
2021/11/09 10:08:07;;;;;;;36.05;13.98;;;;;;;8.40;92.24;102751.53;5088913;28;20247;-86
2021/11/09 10:10:34;;;;;;;40.33;13.18;;;;;;;8.45;92.61;102749.78;5056407;28;20024;-86
2021/11/09 10:13:19;;;;;;;47.45;14.57;;;;;;;8.49;92.85;102761.09;5073508;28;20106;-86
2021/11/09 10:15:48;;;;;;;50.38;12.55;;;;;;;8.53;92.44;102756.75;5089953;28;20481;-86
2021/11/09 10:18:15;;;;;;;34.28;13.20;;;;;;;8.57;92.95;102764.59;5043183;28;20099;-86
2021/11/09 10:20:46;;;;;;;44.08;13.70;;;;;;;8.60;92.96;102758.47;5059074;28;20020;-87
2021/11/09 10:23:20;;;;;;;41.63;13.48;;;;;;;8.64;92.94;102753.25;5062617;28;20078;-87
2021/11/09 10:25:46;;;;;;;46.40;13.48;;;;;;;8.68;93.08;102756.72;5053714;28;20038;-86
2021/11/09 10:28:18;;;;;;;42.97;12.90;;;;;;;8.70;92.49;102761.97;5048402;28;20058;-86
2021/11/09 10:30:55;;;;;;;55.58;14.27;;;;;;;8.73;93.18;102760.22;5064966;28;20071;-86
2021/11/09 10:33:24;;;;;;;32.72;12.20;;;;;;;8.72;93.21;102748.00;5064360;28;20040;-87
2021/11/09 10:35:49;;;;;;;36.78;12.40;;;;;;;8.75;93.37;102754.97;5046722;28;20283;-87
2021/11/09 10:38:15;;;;;;;41.58;12.70;;;;;;;8.76;93.93;102756.72;5061498;28;20035;-86
2021/11/09 10:40:49;;;;;;;40.05;15.00;;;;;;;8.77;93.72;102761.06;5091942;28;20044;-87
2021/11/09 10:43:15;;;;;;;44.60;14.95;;;;;;;8.80;93.59;102758.44;5071609;28;20020;-86
2021/11/09 10:45:40;;;;;;;47.95;15.05;;;;;;;8.81;93.48;102755.81;5074528;28;20103;-86
2021/11/09 10:48:14;;;;;;;47.60;14.98;;;;;;;8.82;93.58;102751.47;5061171;28;20081;-87
2021/11/09 10:51:00;;;;;;;42.35;14.70;;;;;;;8.82;93.74;102751.47;5065242;28;20078;-86
2021/11/09 11:03:59;;;;;;;46.65;15.52;;;;;;;8.86;93.82;102761.03;5060387;28;20039;-87
2021/11/09 11:06:32;;;;;;;50.75;15.77;;;;;;;8.86;93.51;102761.03;5046662;28;20240;-87
2021/11/09 11:09:07;;;;;;;46.05;14.05;;;;;;;8.89;93.76;102763.63;5055230;28;20066;-87
2021/11/09 11:11:34;;;;;;;40.90;13.70;;;;;;;8.90;93.84;102760.16;5065515;28;20103;-86
2021/11/09 11:14:07;;;;;;;38.33;13.45;;;;;;;8.88;94.06;102754.06;5054332;28;20165;-87
2021/11/09 11:16:41;;;;;;;41.78;14.02;;;;;;;8.86;94.16;102761.03;5091830;28;20224;-86
2021/11/09 11:19:07;;;;;;;43.35;14.25;;;;;;;8.85;94.23;102754.06;5039104;28;20032;-86
2021/11/09 11:21:32;;;;;;;49.67;15.18;;;;;;;8.85;94.25;102759.28;5075272;28;20151;-87
2021/11/09 11:23:58;;;;;;;53.65;15.38;;;;;;;8.85;94.54;102759.28;5069246;28;20040;-87
2021/11/09 11:26:23;;;;;;;43.40;14.95;;;;;;;8.83;94.51;102750.59;5066516;28;20122;-86
2021/11/09 11:28:51;;;;;;;52.38;14.43;;;;;;;8.86;94.78;102757.53;5064106;28;20040;-86
2021/11/09 11:31:16;;;;;;;53.10;16.02;;;;;;;8.85;94.94;102748.84;5067326;28;20047;-87
2021/11/09 11:33:42;;;;;;;44.97;15.60;;;;;;;8.85;94.93;102748.84;5079238;28;20094;-87
2021/11/09 11:36:08;;;;;;;59.20;16.55;;;;;;;8.84;95.13;102745.38;5066640;28;20055;-86
2021/11/09 11:38:42;;;;;;;50.92;15.43;;;;;;;8.84;95.17;102742.75;5059909;28;20062;-86
2021/11/09 11:41:08;;;;;;;62.22;17.45;;;;;;;8.83;95.51;102745.38;5078780;28;20089;-87
2021/11/09 11:43:42;;;;;;;50.22;16.42;;;;;;;8.85;95.32;102751.47;5099968;28;20324;-87
2021/11/09 11:46:16;;;;;;;52.38;15.70;;;;;;;8.86;95.56;102750.59;5095659;28;20057;-87
2021/11/09 11:49:00;;;;;;;51.28;15.80;;;;;;;8.85;95.48;102751.47;5054015;28;20052;-86
2021/11/09 11:51:26;;;;;;;46.85;15.23;;;;;;;8.87;95.73;102754.06;5074968;28;20032;-86
2021/11/09 11:53:54;;;;;;;38.42;13.65;;;;;;;8.88;95.61;102740.13;5057496;28;20059;-87
2021/11/09 11:56:38;;;;;;;35.25;14.98;;;;;;;8.90;95.84;102736.63;5062340;28;20107;-87
2021/11/09 11:59:07;;;;;;;44.80;15.55;;;;;;;8.92;95.83;102734.88;5071771;28;20343;-86
2021/11/09 12:01:42;;;;;;;48.67;15.38;;;;;;;8.93;95.35;102730.53;5070585;28;20070;-86
2021/11/09 12:04:09;;;;;;;40.95;15.27;;;;;;;8.97;95.67;102732.28;5065101;28;20077;-86
2021/11/09 12:06:49;;;;;;;41.13;15.13;;;;;;;9.01;95.78;102731.38;5071750;28;20035;-87
2021/11/09 12:09:38;;;;;;;36.58;16.25;;;;;;;9.04;95.52;102723.53;5067996;28;20296;-87
2021/11/09 12:12:19;;;;;;;48.60;16.05;;;;;;;9.05;95.50;102716.56;5055948;28;20031;-87
2021/11/09 12:14:48;;;;;;;43.88;15.35;;;;;;;9.09;95.43;102713.03;5085640;28;20035;-87
2021/11/09 12:17:29;;;;;;;42.88;15.02;;;;;;;9.12;95.22;102715.66;5050141;28;20032;-87
2021/11/09 12:19:55;;;;;;;52.50;16.00;;;;;;;9.14;95.25;102714.75;5067967;28;20060;-87
2021/11/09 12:22:22;;;;;;;38.50;14.10;;;;;;;9.16;95.25;102713.00;5041217;28;20019;-87
2021/11/09 12:24:51;;;;;;;55.40;16.30;;;;;;;9.14;95.34;102713.91;5038173;28;20224;-86
2021/11/09 12:27:29;;;;;;;49.97;16.98;;;;;;;9.10;95.19;102704.34;5050486;28;20028;-87
2021/11/09 12:29:55;;;;;;;48.17;16.42;;;;;;;9.11;95.25;102704.31;5055388;28;20035;-87
2021/11/09 12:32:21;;;;;;;45.83;15.00;;;;;;;9.13;95.35;102706.91;5072523;28;20077;-87
2021/11/09 12:35:03;;;;;;;47.15;16.30;;;;;;;9.13;95.27;102707.81;5066580;28;20040;-87
2021/11/09 12:37:49;;;;;;;55.33;17.88;;;;;;;9.13;95.51;102694.75;5072614;28;20036;-87
2021/11/09 12:40:36;;;;;;;57.17;17.23;;;;;;;9.18;95.75;102698.16;5049192;28;20031;-87
2021/11/09 12:43:28;;;;;;;71.57;20.52;;;;;;;9.20;95.86;102690.31;5052552;28;20031;-87
2021/11/09 12:46:10;;;;;;;74.65;19.25;;;;;;;9.21;95.64;102684.22;5067067;28;20043;-87
2021/11/09 12:48:56;;;;;;;61.72;20.95;;;;;;;9.21;95.85;102684.22;5077691;28;20351;-87
2021/11/09 12:51:28;;;;;;;59.25;17.48;;;;;;;9.20;95.42;102683.38;5078224;28;20220;-87
2021/11/09 12:53:55;;;;;;;77.82;20.05;;;;;;;9.18;95.38;102687.72;5040473;28;20036;-87
2021/11/09 12:56:34;;;;;;;74.38;20.27;;;;;;;9.20;95.44;102685.09;5061376;28;20024;-87
2021/11/09 12:59:07;;;;;;;63.90;19.27;;;;;;;9.17;95.33;102678.16;5069071;28;20043;-87
2021/11/09 13:01:59;;;;;;;64.07;19.60;;;;;;;9.20;95.67;102682.47;5041341;28;20024;-87
2021/11/09 13:09:35;;;;;;;50.28;14.23;;;;;;;9.22;95.54;102670.25;5063628;28;20294;-87
2021/11/09 13:12:04;;;;;;;51.17;14.55;;;;;;;9.23;95.42;102677.25;5062299;28;20028;-87
2021/11/09 13:14:40;;;;;;;49.10;14.90;;;;;;;9.23;95.43;102674.63;5061619;28;20220;-87
2021/11/09 13:17:23;;;;;;;45.33;13.00;;;;;;;9.24;95.49;102684.22;5043063;28;20020;-87
2021/11/09 13:20:22;;;;;;;43.47;13.70;;;;;;;9.25;95.31;102683.34;5046090;28;20042;-87
2021/11/09 13:23:07;;;;;;;43.75;13.20;;;;;;;9.26;95.58;102682.47;5074842;28;20040;-87
2021/11/09 13:25:37;;;;;;;41.20;12.32;;;;;;;9.27;95.60;102683.31;5063993;28;20040;-87
2021/11/09 13:28:13;;;;;;;35.55;12.43;;;;;;;9.26;95.38;102677.25;5053268;28;20025;-87
2021/11/09 13:30:42;;;;;;;39.25;11.10;;;;;;;9.27;95.47;102673.72;5071387;28;20036;-87
2021/11/09 13:33:08;;;;;;;33.08;9.85;;;;;;;9.26;95.28;102669.41;5037644;28;20020;-87
2021/11/09 13:35:43;;;;;;;36.17;9.50;;;;;;;9.27;95.15;102675.47;5058258;28;20086;-87
2021/11/09 13:38:10;;;;;;;24.00;8.85;;;;;;;9.29;95.08;102678.94;5059493;28;20107;-87
2021/11/09 13:41:02;;;;;;;36.47;10.18;;;;;;;9.30;94.97;102678.09;5051886;28;20332;-87
2021/11/09 13:43:31;;;;;;;37.20;11.30;;;;;;;9.31;95.15;102682.41;5052148;28;20040;-87
2021/11/09 13:46:05;;;;;;;25.27;9.68;;;;;;;9.29;95.10;102679.81;5063760;28;20091;-87
2021/11/09 13:48:30;;;;;;;30.50;9.75;;;;;;;9.28;95.16;102680.72;5032090;28;20303;-88
2021/11/09 13:50:59;;;;;;;37.63;9.63;;;;;;;9.26;95.30;102676.34;5059567;28;20054;-87
2021/11/09 13:53:28;;;;;;;24.00;9.77;;;;;;;9.25;94.94;102678.09;5057452;28;20044;-87
2021/11/09 13:55:54;;;;;;;33.55;9.70;;;;;;;9.26;95.33;102679.84;5054285;28;20315;-88
2021/11/09 13:58:20;;;;;;;34.50;9.55;;;;;;;9.26;95.25;102678.97;5050319;28;20406;-88